createdAt,value
2022-09-29T00:00:05.441Z,23.7600
2022-09-29T00:00:16.657Z,23.7600
2022-09-29T00:00:27.814Z,23.7600
2022-09-29T00:00:38.953Z,23.7600
2022-09-29T00:00:50.173Z,23.7500
2022-09-29T00:01:01.389Z,23.7500
2022-09-29T00:01:12.564Z,23.7500
2022-09-29T00:01:24.103Z,23.7500
2022-09-29T00:01:35.337Z,23.7500
2022-09-29T00:01:46.461Z,23.7500
2022-09-29T00:01:57.785Z,23.7500
2022-09-29T00:02:08.964Z,23.7600
2022-09-29T00:02:20.101Z,23.7500
2022-09-29T00:02:31.165Z,23.7500
2022-09-29T00:02:42.424Z,23.7500
2022-09-29T00:02:53.519Z,23.7500
2022-09-29T00:03:04.695Z,23.7500
2022-09-29T00:03:15.869Z,23.7500
2022-09-29T00:03:27.207Z,23.7400
2022-09-29T00:03:38.279Z,23.7400
2022-09-29T00:03:49.325Z,23.7400
2022-09-29T00:04:00.458Z,23.7400
2022-09-29T00:04:11.650Z,23.7400
2022-09-29T00:04:22.861Z,23.7500
2022-09-29T00:04:34.049Z,23.7600
2022-09-29T00:04:45.251Z,23.7500
2022-09-29T00:04:56.328Z,23.7500
2022-09-29T00:05:07.399Z,23.7600
2022-09-29T00:05:18.543Z,23.7700
2022-09-29T00:05:29.591Z,23.7700
2022-09-29T00:05:40.650Z,23.7700
2022-09-29T00:05:51.742Z,23.7800
2022-09-29T00:06:02.809Z,23.7800
2022-09-29T00:06:13.889Z,23.7700
2022-09-29T00:06:24.934Z,23.7700
2022-09-29T00:06:35.986Z,23.7700
2022-09-29T00:06:47.169Z,23.7700
2022-09-29T00:06:58.371Z,23.7600
2022-09-29T00:07:09.429Z,23.7600
2022-09-29T00:07:20.489Z,23.7500
2022-09-29T00:07:31.649Z,23.7500
2022-09-29T00:07:42.889Z,23.7600
2022-09-29T00:07:53.959Z,23.7600
2022-09-29T00:08:05.153Z,23.7500
2022-09-29T00:08:16.320Z,23.7500
2022-09-29T00:08:27.529Z,23.7500
2022-09-29T00:08:38.702Z,23.7400
2022-09-29T00:08:49.951Z,23.7400
2022-09-29T00:09:01.019Z,23.7400
2022-09-29T00:09:12.181Z,23.7400
2022-09-29T00:09:23.700Z,23.7400
2022-09-29T00:09:34.926Z,23.7300
2022-09-29T00:09:46.100Z,23.7300
2022-09-29T00:09:57.176Z,23.7300
2022-09-29T00:10:08.289Z,23.7200
2022-09-29T00:10:19.370Z,23.7200
2022-09-29T00:10:30.424Z,23.7200
2022-09-29T00:10:41.601Z,23.7300
2022-09-29T00:10:52.661Z,23.7400
2022-09-29T00:11:03.720Z,23.7400
2022-09-29T00:11:14.846Z,23.7400
2022-09-29T00:11:25.986Z,23.7400
2022-09-29T00:11:37.055Z,23.7500
2022-09-29T00:11:48.102Z,23.7500
2022-09-29T00:11:59.142Z,23.7500
2022-09-29T00:12:10.270Z,23.7400
2022-09-29T00:12:21.333Z,23.7300
2022-09-29T00:12:32.394Z,23.7300
2022-09-29T00:12:43.555Z,23.7400
2022-09-29T00:12:54.692Z,23.7400
2022-09-29T00:13:05.749Z,23.7400
2022-09-29T00:13:16.982Z,23.7500
2022-09-29T00:13:28.112Z,23.7500
2022-09-29T00:13:39.251Z,23.7400
2022-09-29T00:13:50.415Z,23.7400
2022-09-29T00:14:01.456Z,23.7400
2022-09-29T00:14:12.600Z,23.7400
2022-09-29T00:14:23.670Z,23.7400
2022-09-29T00:14:34.741Z,23.7400
2022-09-29T00:14:47.930Z,23.7400
2022-09-29T00:14:59.223Z,23.7400
2022-09-29T00:15:10.511Z,23.7200
2022-09-29T00:15:21.580Z,23.7300
2022-09-29T00:15:32.655Z,23.7300
2022-09-29T00:15:43.789Z,23.7300
2022-09-29T00:15:54.936Z,23.7200
2022-09-29T00:16:06.042Z,23.7200
2022-09-29T00:16:17.132Z,23.7100
2022-09-29T00:16:28.437Z,23.7100
2022-09-29T00:16:39.546Z,23.7100
2022-09-29T00:16:50.628Z,23.7100
2022-09-29T00:17:01.699Z,23.7100
2022-09-29T00:17:12.766Z,23.7100
2022-09-29T00:17:23.905Z,23.7100
2022-09-29T00:17:34.952Z,23.7200
2022-09-29T00:18:09.384Z,23.7200
2022-09-29T00:18:13.609Z,23.7300
2022-09-29T00:18:20.674Z,23.7100
2022-09-29T00:18:31.748Z,23.6800
2022-09-29T00:18:42.946Z,23.6800
2022-09-29T00:18:53.980Z,23.6900
2022-09-29T00:19:05.038Z,23.7000
2022-09-29T00:19:16.715Z,23.7100
2022-09-29T00:19:27.772Z,23.7200
2022-09-29T00:19:38.827Z,23.7300
2022-09-29T00:19:49.877Z,23.7300
2022-09-29T00:20:00.962Z,23.7200
2022-09-29T00:20:12.045Z,23.7200
2022-09-29T00:20:23.071Z,23.7200
2022-09-29T00:20:34.135Z,23.7300
2022-09-29T00:20:45.201Z,23.7400
2022-09-29T00:20:56.272Z,23.7400
2022-09-29T00:21:07.334Z,23.7400
2022-09-29T00:21:18.387Z,23.7400
2022-09-29T00:21:29.448Z,23.7300
2022-09-29T00:21:40.511Z,23.7300
2022-09-29T00:21:51.583Z,23.7300
2022-09-29T00:22:02.657Z,23.7300
2022-09-29T00:22:13.722Z,23.7300
2022-09-29T00:22:24.787Z,23.7400
2022-09-29T00:22:35.831Z,23.7400
2022-09-29T00:22:46.929Z,23.7300
2022-09-29T00:22:57.987Z,23.7200
2022-09-29T00:23:09.128Z,23.7200
2022-09-29T00:23:20.180Z,23.7100
2022-09-29T00:23:31.237Z,23.7100
2022-09-29T00:23:42.270Z,23.7200
2022-09-29T00:23:53.340Z,23.7200
2022-09-29T00:24:04.412Z,23.7200
2022-09-29T00:24:15.545Z,23.7200
2022-09-29T00:24:26.628Z,23.7200
2022-09-29T00:24:37.690Z,23.7100
2022-09-29T00:24:48.740Z,23.7100
2022-09-29T00:24:59.820Z,23.7100
2022-09-29T00:25:10.946Z,23.7200
2022-09-29T00:25:22.020Z,23.7200
2022-09-29T00:25:33.111Z,23.7100
2022-09-29T00:25:44.184Z,23.7200
2022-09-29T00:25:55.256Z,23.7200
2022-09-29T00:26:06.322Z,23.7200
2022-09-29T00:26:17.383Z,23.7200
2022-09-29T00:26:28.515Z,23.7200
2022-09-29T00:26:39.655Z,23.7100
2022-09-29T00:26:50.718Z,23.7100
2022-09-29T00:27:01.781Z,23.7100
2022-09-29T00:27:12.858Z,23.7100
2022-09-29T00:27:23.930Z,23.7000
2022-09-29T00:27:35.025Z,23.7000
2022-09-29T00:27:46.081Z,23.7000
2022-09-29T00:27:57.238Z,23.7000
2022-09-29T00:28:08.319Z,23.7100
2022-09-29T00:28:19.375Z,23.7100
2022-09-29T00:28:30.481Z,23.7100
2022-09-29T00:28:41.607Z,23.7100
2022-09-29T00:28:52.711Z,23.7100
2022-09-29T00:29:03.745Z,23.7100
2022-09-29T00:29:14.881Z,23.7100
2022-09-29T00:29:25.952Z,23.7100
2022-09-29T00:29:37.001Z,23.7100
2022-09-29T00:29:48.050Z,23.7000
2022-09-29T00:29:59.179Z,23.7000
2022-09-29T00:30:10.242Z,23.6900
2022-09-29T00:30:21.296Z,23.6900
2022-09-29T00:30:32.367Z,23.6900
2022-09-29T00:30:43.500Z,23.6900
2022-09-29T00:30:54.586Z,23.6900
2022-09-29T00:31:05.681Z,23.6900
2022-09-29T00:31:16.871Z,23.6900
2022-09-29T00:31:28.117Z,23.7000
2022-09-29T00:31:39.297Z,23.7100
2022-09-29T00:31:50.446Z,23.7200
2022-09-29T00:32:01.590Z,23.7200
2022-09-29T00:32:12.640Z,23.7300
2022-09-29T00:32:23.696Z,23.7300
2022-09-29T00:32:34.762Z,23.7400
2022-09-29T00:32:45.908Z,23.7400
2022-09-29T00:32:56.957Z,23.7500
2022-09-29T00:33:08.284Z,23.7500
2022-09-29T00:33:19.429Z,23.7500
2022-09-29T00:33:30.534Z,23.7400
2022-09-29T00:33:41.605Z,23.7300
2022-09-29T00:33:52.677Z,23.7300
2022-09-29T00:34:03.742Z,23.7200
2022-09-29T00:34:14.831Z,23.7200
2022-09-29T00:34:25.919Z,23.7200
2022-09-29T00:34:36.984Z,23.7200
2022-09-29T00:34:48.130Z,23.7200
2022-09-29T00:34:59.221Z,23.7200
2022-09-29T00:35:10.307Z,23.7300
2022-09-29T00:35:21.388Z,23.7300
2022-09-29T00:35:32.441Z,23.7200
2022-09-29T00:35:43.505Z,23.7200
2022-09-29T00:35:54.576Z,23.7300
2022-09-29T00:36:05.640Z,23.7200
2022-09-29T00:36:16.729Z,23.7200
2022-09-29T00:36:27.777Z,23.7200
2022-09-29T00:36:38.917Z,23.7200
2022-09-29T00:36:49.990Z,23.7200
2022-09-29T00:37:01.036Z,23.7100
2022-09-29T00:37:12.087Z,23.7100
2022-09-29T00:37:23.182Z,23.7100
2022-09-29T00:37:34.261Z,23.7200
2022-09-29T00:37:45.330Z,23.7200
2022-09-29T00:37:56.387Z,23.7300
2022-09-29T00:38:07.450Z,23.7200
2022-09-29T00:38:18.541Z,23.7200
2022-09-29T00:38:29.609Z,23.7200
2022-09-29T00:38:40.753Z,23.7200
2022-09-29T00:38:51.826Z,23.7200
2022-09-29T00:39:02.874Z,23.7200
2022-09-29T00:39:13.924Z,23.7200
2022-09-29T00:39:24.982Z,23.7100
2022-09-29T00:39:36.039Z,23.7100
2022-09-29T00:39:47.090Z,23.7100
2022-09-29T00:39:58.161Z,23.7100
2022-09-29T00:40:09.325Z,23.7000
2022-09-29T00:40:20.432Z,23.7000
2022-09-29T00:40:31.530Z,23.7000
2022-09-29T00:40:42.727Z,23.7000
2022-09-29T00:40:53.878Z,23.7000
2022-09-29T00:41:04.903Z,23.7000
2022-09-29T00:41:15.985Z,23.7100
2022-09-29T00:41:27.064Z,23.7100
2022-09-29T00:41:38.117Z,23.7100
2022-09-29T00:41:49.212Z,23.7100
2022-09-29T00:42:00.253Z,23.7100
2022-09-29T00:42:11.346Z,23.7100
2022-09-29T00:42:22.414Z,23.7100
2022-09-29T00:42:33.463Z,23.7100
2022-09-29T00:42:44.600Z,23.7100
2022-09-29T00:42:55.676Z,23.7100
2022-09-29T00:43:06.740Z,23.7000
2022-09-29T00:43:17.890Z,23.7000
2022-09-29T00:43:28.994Z,23.7000
2022-09-29T00:43:40.051Z,23.7000
2022-09-29T00:43:51.086Z,23.6900
2022-09-29T00:44:02.149Z,23.6900
2022-09-29T00:44:13.338Z,23.6900
2022-09-29T00:44:24.417Z,23.6900
2022-09-29T00:44:35.488Z,23.6900
2022-09-29T00:44:46.638Z,23.6900
2022-09-29T00:44:57.694Z,23.6900
2022-09-29T00:45:08.759Z,23.6900
2022-09-29T00:45:19.826Z,23.6900
2022-09-29T00:45:30.977Z,23.6900
2022-09-29T00:45:42.070Z,23.6800
2022-09-29T00:45:53.154Z,23.6800
2022-09-29T00:46:04.300Z,23.6900
2022-09-29T00:46:15.698Z,23.6800
2022-09-29T00:46:26.756Z,23.6900
2022-09-29T00:46:37.831Z,23.6800
2022-09-29T00:46:48.982Z,23.6900
2022-09-29T00:47:00.029Z,23.6900
2022-09-29T00:47:11.073Z,23.7000
2022-09-29T00:47:22.155Z,23.7100
2022-09-29T00:47:33.212Z,23.7100
2022-09-29T00:47:44.290Z,23.7100
2022-09-29T00:47:55.381Z,23.7000
2022-09-29T00:48:06.439Z,23.7000
2022-09-29T00:48:17.568Z,23.6900
2022-09-29T00:48:28.646Z,23.6900
2022-09-29T00:48:39.737Z,23.6800
2022-09-29T00:48:50.877Z,23.6800
2022-09-29T00:49:01.987Z,23.6800
2022-09-29T00:49:13.063Z,23.6900
2022-09-29T00:49:24.144Z,23.6900
2022-09-29T00:49:35.211Z,23.7000
2022-09-29T00:49:46.277Z,23.7000
2022-09-29T00:49:57.345Z,23.7100
2022-09-29T00:50:08.492Z,23.7100
2022-09-29T00:50:19.634Z,23.7000
2022-09-29T00:50:30.696Z,23.6900
2022-09-29T00:50:41.787Z,23.6900
2022-09-29T00:50:52.936Z,23.6800
2022-09-29T00:51:04.002Z,23.6800
2022-09-29T00:51:15.064Z,23.6700
2022-09-29T00:51:26.145Z,23.6700
2022-09-29T00:51:37.223Z,23.6700
2022-09-29T00:51:48.282Z,23.6600
2022-09-29T00:51:59.345Z,23.6600
2022-09-29T00:52:10.415Z,23.6600
2022-09-29T00:52:21.552Z,23.6600
2022-09-29T00:52:32.620Z,23.6700
2022-09-29T00:52:43.703Z,23.6700
2022-09-29T00:52:54.766Z,23.6900
2022-09-29T00:53:05.827Z,23.7000
2022-09-29T00:53:21.421Z,23.7000
2022-09-29T00:53:32.887Z,23.7000
2022-09-29T00:53:43.996Z,23.6700
2022-09-29T00:53:55.056Z,23.6800
2022-09-29T00:54:06.152Z,23.6800
2022-09-29T00:54:17.323Z,23.6700
2022-09-29T00:54:28.417Z,23.6700
2022-09-29T00:54:39.580Z,23.6700
2022-09-29T00:54:50.655Z,23.6600
2022-09-29T00:55:01.741Z,23.6500
2022-09-29T00:55:12.839Z,23.6500
2022-09-29T00:55:23.953Z,23.6500
2022-09-29T00:55:35.014Z,23.6500
2022-09-29T00:55:46.086Z,23.6600
2022-09-29T00:55:57.183Z,23.6600
2022-09-29T00:56:08.323Z,23.6600
2022-09-29T00:56:19.396Z,23.6600
2022-09-29T00:56:30.421Z,23.6700
2022-09-29T00:56:41.558Z,23.6700
2022-09-29T00:56:52.598Z,23.6700
2022-09-29T00:57:03.650Z,23.6700
2022-09-29T00:57:14.788Z,23.6700
2022-09-29T00:57:25.841Z,23.6700
2022-09-29T00:57:36.892Z,23.6700
2022-09-29T00:57:47.982Z,23.6700
2022-09-29T00:57:59.023Z,23.6700
2022-09-29T00:58:10.106Z,23.6700
2022-09-29T00:58:21.163Z,23.6700
2022-09-29T00:58:32.252Z,23.6600
2022-09-29T00:58:43.425Z,23.6600
2022-09-29T00:58:54.527Z,23.6600
2022-09-29T00:59:05.586Z,23.6600
2022-09-29T00:59:16.725Z,23.6600
2022-09-29T00:59:27.796Z,23.6600
2022-09-29T00:59:38.884Z,23.6600
2022-09-29T00:59:49.941Z,23.6600
2022-09-29T01:00:00.980Z,23.6500
2022-09-29T01:00:12.045Z,23.6500
2022-09-29T01:00:23.114Z,23.6500
2022-09-29T01:00:34.209Z,23.6500
2022-09-29T01:00:45.395Z,23.6500
2022-09-29T01:00:56.459Z,23.6500
2022-09-29T01:01:07.625Z,23.6500
2022-09-29T01:01:18.843Z,23.6500
2022-09-29T01:01:29.894Z,23.6500
2022-09-29T01:01:40.986Z,23.6500
2022-09-29T01:01:52.066Z,23.6500
2022-09-29T01:02:03.184Z,23.6500
2022-09-29T01:02:14.373Z,23.6500
2022-09-29T01:02:25.522Z,23.6600
2022-09-29T01:02:36.552Z,23.6600
2022-09-29T01:02:47.705Z,23.6700
2022-09-29T01:02:58.759Z,23.6700
2022-09-29T01:03:09.827Z,23.6800
2022-09-29T01:03:20.975Z,23.6800
2022-09-29T01:03:32.032Z,23.6800
2022-09-29T01:03:43.094Z,23.6700
2022-09-29T01:03:54.173Z,23.6700
2022-09-29T01:04:05.275Z,23.6800
2022-09-29T01:04:16.438Z,23.6800
2022-09-29T01:04:27.552Z,23.6800
2022-09-29T01:04:38.696Z,23.6800
2022-09-29T01:04:49.979Z,23.6800
2022-09-29T01:05:01.030Z,23.6800
2022-09-29T01:05:12.097Z,23.6800
2022-09-29T01:05:23.226Z,23.6800
2022-09-29T01:05:34.306Z,23.6800
2022-09-29T01:05:45.386Z,23.6900
2022-09-29T01:05:56.464Z,23.6900
2022-09-29T01:06:07.524Z,23.6800
2022-09-29T01:06:18.568Z,23.6800
2022-09-29T01:06:29.627Z,23.6700
2022-09-29T01:06:40.773Z,23.6600
2022-09-29T01:06:51.922Z,23.6600
2022-09-29T01:07:02.980Z,23.6600
2022-09-29T01:07:14.047Z,23.6700
2022-09-29T01:07:25.175Z,23.6800
2022-09-29T01:07:36.246Z,23.6800
2022-09-29T01:07:47.282Z,23.7000
2022-09-29T01:07:58.353Z,23.7000
2022-09-29T01:08:09.494Z,23.7100
2022-09-29T01:08:20.570Z,23.7200
2022-09-29T01:08:31.637Z,23.7200
2022-09-29T01:08:42.777Z,23.7100
2022-09-29T01:08:54.133Z,23.7100
2022-09-29T01:09:05.187Z,23.7000
2022-09-29T01:09:16.309Z,23.7000
2022-09-29T01:09:27.435Z,23.7100
2022-09-29T01:09:38.585Z,23.7200
2022-09-29T01:09:49.654Z,23.7200
2022-09-29T01:10:00.707Z,23.7200
2022-09-29T01:10:11.834Z,23.7300
2022-09-29T01:10:22.919Z,23.7300
2022-09-29T01:10:33.955Z,23.7300
2022-09-29T01:10:45.102Z,23.7300
2022-09-29T01:10:56.235Z,23.7300
2022-09-29T01:11:07.315Z,23.7300
2022-09-29T01:11:18.395Z,23.7300
2022-09-29T01:11:29.493Z,23.7300
2022-09-29T01:11:40.705Z,23.7300
2022-09-29T01:11:51.791Z,23.7300
2022-09-29T01:12:02.856Z,23.7200
2022-09-29T01:12:13.995Z,23.7200
2022-09-29T01:12:25.597Z,23.7300
2022-09-29T01:12:36.676Z,23.7300
2022-09-29T01:12:47.724Z,23.7200
2022-09-29T01:12:58.775Z,23.7200
2022-09-29T01:13:09.835Z,23.7200
2022-09-29T01:13:20.904Z,23.7200
2022-09-29T01:13:31.990Z,23.7200
2022-09-29T01:13:43.129Z,23.7300
2022-09-29T01:13:54.179Z,23.7300
2022-09-29T01:14:05.248Z,23.7400
2022-09-29T01:14:16.468Z,23.7400
2022-09-29T01:14:27.661Z,23.7400
2022-09-29T01:14:38.702Z,23.7400
2022-09-29T01:14:49.815Z,23.7300
2022-09-29T01:15:00.898Z,23.7200
2022-09-29T01:15:11.956Z,23.7100
2022-09-29T01:15:23.045Z,23.7000
2022-09-29T01:15:34.116Z,23.7000
2022-09-29T01:15:45.254Z,23.7000
2022-09-29T01:15:56.343Z,23.6900
2022-09-29T01:16:07.433Z,23.6900
2022-09-29T01:16:18.778Z,23.6900
2022-09-29T01:16:29.865Z,23.6900
2022-09-29T01:16:40.966Z,23.6900
2022-09-29T01:16:52.065Z,23.6900
2022-09-29T01:17:03.134Z,23.6900
2022-09-29T01:17:14.174Z,23.6800
2022-09-29T01:17:25.252Z,23.6800
2022-09-29T01:17:36.302Z,23.6800
2022-09-29T01:17:47.450Z,23.6800
2022-09-29T01:17:58.522Z,23.6800
2022-09-29T01:18:09.582Z,23.6800
2022-09-29T01:18:20.718Z,23.6800
2022-09-29T01:18:31.777Z,23.6900
2022-09-29T01:18:42.816Z,23.6900
2022-09-29T01:18:53.974Z,23.6900
2022-09-29T01:19:05.051Z,23.6900
2022-09-29T01:19:16.105Z,23.7000
2022-09-29T01:19:27.143Z,23.7000
2022-09-29T01:19:38.251Z,23.7100
2022-09-29T01:19:49.387Z,23.7100
2022-09-29T01:20:04.210Z,23.7100
2022-09-29T01:20:15.765Z,23.7000
2022-09-29T01:20:26.814Z,23.6800
2022-09-29T01:20:37.929Z,23.6800
2022-09-29T01:20:49.004Z,23.6800
2022-09-29T01:21:00.069Z,23.6800
2022-09-29T01:21:11.253Z,23.6800
2022-09-29T01:21:22.392Z,23.6800
2022-09-29T01:21:33.467Z,23.6800
2022-09-29T01:21:44.545Z,23.6800
2022-09-29T01:21:55.732Z,23.6800
2022-09-29T01:22:06.802Z,23.6800
2022-09-29T01:22:17.873Z,23.6800
2022-09-29T01:22:28.964Z,23.6800
2022-09-29T01:22:40.109Z,23.6800
2022-09-29T01:22:51.186Z,23.6700
2022-09-29T01:23:02.248Z,23.6700
2022-09-29T01:23:13.388Z,23.6700
2022-09-29T01:23:24.523Z,23.6800
2022-09-29T01:23:35.599Z,23.6800
2022-09-29T01:23:46.689Z,23.6800
2022-09-29T01:23:57.830Z,23.6900
2022-09-29T01:24:08.902Z,23.6900
2022-09-29T01:24:20.196Z,23.6800
2022-09-29T01:24:31.397Z,23.6800
2022-09-29T01:24:42.562Z,23.6800
2022-09-29T01:24:53.614Z,23.6800
2022-09-29T01:25:04.687Z,23.6800
2022-09-29T01:25:15.815Z,23.6800
2022-09-29T01:25:27.127Z,23.6800
2022-09-29T01:25:38.155Z,23.6800
2022-09-29T01:25:49.258Z,23.6800
2022-09-29T01:26:00.397Z,23.6900
2022-09-29T01:26:11.520Z,23.6800
2022-09-29T01:26:22.608Z,23.6800
2022-09-29T01:26:33.650Z,23.6900
2022-09-29T01:26:44.797Z,23.6900
2022-09-29T01:26:55.858Z,23.6900
2022-09-29T01:27:06.921Z,23.7000
2022-09-29T01:27:18.056Z,23.7000
2022-09-29T01:27:29.207Z,23.7000
2022-09-29T01:27:40.261Z,23.7000
2022-09-29T01:27:51.331Z,23.7100
2022-09-29T01:28:02.417Z,23.7100
2022-09-29T01:28:13.553Z,23.7000
2022-09-29T01:28:24.603Z,23.6900
2022-09-29T01:28:35.677Z,23.6900
2022-09-29T01:28:46.709Z,23.6800
2022-09-29T01:28:57.776Z,23.6800
2022-09-29T01:29:08.844Z,23.6800
2022-09-29T01:29:19.997Z,23.6700
2022-09-29T01:29:31.138Z,23.6700
2022-09-29T01:29:42.209Z,23.6700
2022-09-29T01:29:53.315Z,23.6700
2022-09-29T01:30:04.398Z,23.6800
2022-09-29T01:30:15.582Z,23.6800
2022-09-29T01:30:26.648Z,23.6800
2022-09-29T01:30:37.724Z,23.6800
2022-09-29T01:30:48.856Z,23.6800
2022-09-29T01:30:59.922Z,23.6800
2022-09-29T01:31:11.045Z,23.6800
2022-09-29T01:31:22.246Z,23.6800
2022-09-29T01:31:33.420Z,23.6700
2022-09-29T01:31:44.588Z,23.6700
2022-09-29T01:31:55.786Z,23.6700
2022-09-29T01:32:06.873Z,23.6700
2022-09-29T01:32:17.915Z,23.6600
2022-09-29T01:32:28.983Z,23.6600
2022-09-29T01:32:40.029Z,23.6600
2022-09-29T01:32:51.147Z,23.6600
2022-09-29T01:33:02.226Z,23.6600
2022-09-29T01:33:13.303Z,23.6500
2022-09-29T01:33:24.369Z,23.6600
2022-09-29T01:33:35.443Z,23.6700
2022-09-29T01:33:46.505Z,23.6700
2022-09-29T01:33:57.581Z,23.6700
2022-09-29T01:34:08.658Z,23.6700
2022-09-29T01:34:19.905Z,23.6700
2022-09-29T01:34:31.034Z,23.6700
2022-09-29T01:34:42.103Z,23.6700
2022-09-29T01:34:53.409Z,23.6700
2022-09-29T01:35:04.490Z,23.6700
2022-09-29T01:35:15.555Z,23.6700
2022-09-29T01:35:26.694Z,23.6700
2022-09-29T01:35:37.755Z,23.6700
2022-09-29T01:35:49.731Z,23.6600
2022-09-29T01:36:00.771Z,23.6600
2022-09-29T01:36:11.927Z,23.6500
2022-09-29T01:36:23.059Z,23.6500
2022-09-29T01:36:34.132Z,23.6500
2022-09-29T01:36:45.193Z,23.6500
2022-09-29T01:36:56.340Z,23.6500
2022-09-29T01:37:07.417Z,23.6500
2022-09-29T01:37:18.484Z,23.6600
2022-09-29T01:37:29.538Z,23.6700
2022-09-29T01:37:40.593Z,23.6700
2022-09-29T01:37:51.665Z,23.6700
2022-09-29T01:38:02.732Z,23.6600
2022-09-29T01:38:13.872Z,23.6600
2022-09-29T01:38:25.005Z,23.6600
2022-09-29T01:38:36.082Z,23.6600
2022-09-29T01:38:47.153Z,23.6500
2022-09-29T01:38:58.289Z,23.6600
2022-09-29T01:39:09.354Z,23.6600
2022-09-29T01:39:20.413Z,23.6600
2022-09-29T01:39:31.479Z,23.6500
2022-09-29T01:39:42.614Z,23.6500
2022-09-29T01:39:53.713Z,23.6400
2022-09-29T01:40:04.774Z,23.6400
2022-09-29T01:40:15.943Z,23.6300
2022-09-29T01:40:27.183Z,23.6200
2022-09-29T01:40:38.348Z,23.6200
2022-09-29T01:40:49.514Z,23.6200
2022-09-29T01:41:00.722Z,23.6200
2022-09-29T01:41:11.764Z,23.6200
2022-09-29T01:41:22.833Z,23.6200
2022-09-29T01:41:33.901Z,23.6300
2022-09-29T01:41:45.053Z,23.6300
2022-09-29T01:41:56.103Z,23.6400
2022-09-29T01:42:07.149Z,23.6500
2022-09-29T01:42:18.211Z,23.6500
2022-09-29T01:42:29.343Z,23.6500
2022-09-29T01:42:40.426Z,23.6600
2022-09-29T01:42:51.499Z,23.6600
2022-09-29T01:43:02.559Z,23.6600
2022-09-29T01:43:13.685Z,23.6600
2022-09-29T01:43:24.742Z,23.6600
2022-09-29T01:43:35.784Z,23.6700
2022-09-29T01:43:47.078Z,23.6700
2022-09-29T01:43:58.146Z,23.6700
2022-09-29T01:44:09.208Z,23.6700
2022-09-29T01:44:20.643Z,23.6700
2022-09-29T01:44:31.964Z,23.6700
2022-09-29T01:44:43.015Z,23.6700
2022-09-29T01:44:54.056Z,23.6700
2022-09-29T01:45:05.163Z,23.6700
2022-09-29T01:45:16.295Z,23.6600
2022-09-29T01:45:27.451Z,23.6600
2022-09-29T01:45:38.589Z,23.6600
2022-09-29T01:45:49.838Z,23.6600
2022-09-29T01:46:00.923Z,23.6700
2022-09-29T01:46:12.055Z,23.6600
2022-09-29T01:46:23.151Z,23.6600
2022-09-29T01:46:34.249Z,23.6500
2022-09-29T01:46:45.318Z,23.6400
2022-09-29T01:46:56.392Z,23.6400
2022-09-29T01:47:07.435Z,23.6400
2022-09-29T01:47:18.500Z,23.6300
2022-09-29T01:47:29.571Z,23.6300
2022-09-29T01:47:40.613Z,23.6400
2022-09-29T01:47:51.751Z,23.6400
2022-09-29T01:48:02.835Z,23.6400
2022-09-29T01:48:14.737Z,23.6400
2022-09-29T01:48:25.783Z,23.6400
2022-09-29T01:48:36.845Z,23.6400
2022-09-29T01:48:47.924Z,23.6400
2022-09-29T01:48:58.996Z,23.6500
2022-09-29T01:49:10.068Z,23.6500
2022-09-29T01:49:21.207Z,23.6400
2022-09-29T01:49:32.253Z,23.6500
2022-09-29T01:49:43.294Z,23.6600
2022-09-29T01:49:54.459Z,23.6700
2022-09-29T01:50:05.540Z,23.6700
2022-09-29T01:50:16.645Z,23.6700
2022-09-29T01:50:27.789Z,23.6600
2022-09-29T01:50:38.872Z,23.6600
2022-09-29T01:50:49.941Z,23.6500
2022-09-29T01:51:01.028Z,23.6400
2022-09-29T01:51:12.061Z,23.6400
2022-09-29T01:51:23.197Z,23.6300
2022-09-29T01:51:34.276Z,23.6300
2022-09-29T01:51:45.330Z,23.6300
2022-09-29T01:51:56.474Z,23.6200
2022-09-29T01:52:07.540Z,23.6200
2022-09-29T01:52:18.613Z,23.6300
2022-09-29T01:52:29.741Z,23.6300
2022-09-29T01:52:40.812Z,23.6300
2022-09-29T01:52:51.858Z,23.6300
2022-09-29T01:53:02.902Z,23.6400
2022-09-29T01:53:13.961Z,23.6500
2022-09-29T01:53:25.235Z,23.6600
2022-09-29T01:53:36.298Z,23.6700
2022-09-29T01:53:47.343Z,23.6800
2022-09-29T01:53:58.477Z,23.6800
2022-09-29T01:54:09.535Z,23.6900
2022-09-29T01:54:20.796Z,23.6800
2022-09-29T01:54:32.215Z,23.6800
2022-09-29T01:54:43.257Z,23.6800
2022-09-29T01:54:54.312Z,23.6700
2022-09-29T01:55:05.368Z,23.6700
2022-09-29T01:55:16.537Z,23.6600
2022-09-29T01:55:27.714Z,23.6600
2022-09-29T01:55:38.770Z,23.6600
2022-09-29T01:55:49.831Z,23.6500
2022-09-29T01:56:00.876Z,23.6500
2022-09-29T01:56:11.949Z,23.6500
2022-09-29T01:56:23.012Z,23.6400
2022-09-29T01:56:34.065Z,23.6400
2022-09-29T01:56:45.125Z,23.6400
2022-09-29T01:56:56.191Z,23.6400
2022-09-29T01:57:07.256Z,23.6400
2022-09-29T01:57:18.337Z,23.6500
2022-09-29T01:57:29.399Z,23.6500
2022-09-29T01:57:40.463Z,23.6500
2022-09-29T01:57:51.542Z,23.6500
2022-09-29T01:58:02.599Z,23.6500
2022-09-29T01:58:13.666Z,23.6500
2022-09-29T01:58:24.736Z,23.6500
2022-09-29T01:58:35.826Z,23.6500
2022-09-29T01:58:46.966Z,23.6500
2022-09-29T01:58:58.036Z,23.6500
2022-09-29T01:59:09.096Z,23.6600
2022-09-29T01:59:20.402Z,23.6500
2022-09-29T01:59:31.538Z,23.6400
2022-09-29T01:59:42.611Z,23.6300
2022-09-29T01:59:53.662Z,23.6200
2022-09-29T02:00:04.723Z,23.6200
2022-09-29T02:00:15.779Z,23.6200
2022-09-29T02:00:26.873Z,23.6300
2022-09-29T02:00:38.052Z,23.6200
2022-09-29T02:00:49.354Z,23.6300
2022-09-29T02:01:00.552Z,23.6200
2022-09-29T02:01:11.715Z,23.6200
2022-09-29T02:01:22.858Z,23.6200
2022-09-29T02:01:33.881Z,23.6200
2022-09-29T02:01:44.999Z,23.6200
2022-09-29T02:02:00.570Z,23.6100
2022-09-29T02:02:12.004Z,23.6000
2022-09-29T02:02:23.192Z,23.5800
2022-09-29T02:02:34.240Z,23.5800
2022-09-29T02:02:45.294Z,23.5800
2022-09-29T02:02:56.418Z,23.5900
2022-09-29T02:03:07.503Z,23.5900
2022-09-29T02:03:18.568Z,23.6000
2022-09-29T02:03:29.674Z,23.6000
2022-09-29T02:03:40.754Z,23.6000
2022-09-29T02:03:51.874Z,23.6000
2022-09-29T02:04:02.947Z,23.6000
2022-09-29T02:04:13.998Z,23.6000
2022-09-29T02:04:25.328Z,23.6000
2022-09-29T02:04:36.409Z,23.6000
2022-09-29T02:04:47.465Z,23.5900
2022-09-29T02:04:58.603Z,23.5900
2022-09-29T02:05:09.678Z,23.5900
2022-09-29T02:05:20.764Z,23.6000
2022-09-29T02:05:31.874Z,23.6000
2022-09-29T02:05:42.957Z,23.6000
2022-09-29T02:05:54.148Z,23.6000
2022-09-29T02:06:05.220Z,23.6000
2022-09-29T02:06:16.280Z,23.6000
2022-09-29T02:06:27.419Z,23.5900
2022-09-29T02:06:38.494Z,23.5900
2022-09-29T02:06:49.534Z,23.5900
2022-09-29T02:07:00.695Z,23.6000
2022-09-29T02:07:11.785Z,23.6000
2022-09-29T02:07:22.818Z,23.5900
2022-09-29T02:07:33.887Z,23.5900
2022-09-29T02:07:44.957Z,23.6000
2022-09-29T02:07:56.088Z,23.5900
2022-09-29T02:08:07.155Z,23.6000
2022-09-29T02:08:18.239Z,23.6000
2022-09-29T02:08:29.390Z,23.6000
2022-09-29T02:08:40.453Z,23.6100
2022-09-29T02:08:51.535Z,23.6100
2022-09-29T02:09:02.669Z,23.6200
2022-09-29T02:09:13.702Z,23.6200
2022-09-29T02:09:24.772Z,23.6200
2022-09-29T02:09:35.849Z,23.6100
2022-09-29T02:09:46.906Z,23.6100
2022-09-29T02:09:58.047Z,23.6100
2022-09-29T02:10:09.122Z,23.6000
2022-09-29T02:10:20.202Z,23.6000
2022-09-29T02:10:31.336Z,23.6100
2022-09-29T02:10:42.439Z,23.6100
2022-09-29T02:10:53.523Z,23.6100
2022-09-29T02:11:04.596Z,23.6000
2022-09-29T02:11:15.655Z,23.5900
2022-09-29T02:11:26.719Z,23.5900
2022-09-29T02:11:37.788Z,23.5900
2022-09-29T02:11:48.827Z,23.5900
2022-09-29T02:11:59.965Z,23.5900
2022-09-29T02:12:11.040Z,23.5800
2022-09-29T02:12:22.134Z,23.5800
2022-09-29T02:12:33.189Z,23.5800
2022-09-29T02:12:44.251Z,23.5800
2022-09-29T02:12:55.304Z,23.5900
2022-09-29T02:13:06.381Z,23.5900
2022-09-29T02:13:17.459Z,23.6000
2022-09-29T02:13:28.533Z,23.6100
2022-09-29T02:13:39.616Z,23.6100
2022-09-29T02:13:50.738Z,23.6200
2022-09-29T02:14:01.890Z,23.6200
2022-09-29T02:14:12.968Z,23.6200
2022-09-29T02:14:24.015Z,23.6200
2022-09-29T02:14:35.073Z,23.6200
2022-09-29T02:14:46.130Z,23.6300